Terminal Aerodrome Forecast
Issued by NWS

Home | Current Version | Previous Version | Graphics & Text | Print | Product List | Glossary On
Versions: 1 2 3 4 5 6 7 8 9 10 11 12 13 14 15 16 17 18 19 20 21 22 23 24 25 26 27 28 29 30 31 32
495
FTUS43 KLOT 220259 AAB
TAFDPA
TAF AMD
KDPA 220259Z 2203/2224 VRB06KT 6SM -TSRA SCT040CB OVC100
     FM220430 21006KT P6SM SCT100 BKN250
     FM221300 26008KT P6SM BKN035
     FM222200 20008KT P6SM BKN040 PROB30 2222/2224 3SM TSRA
      OVC040CB=

USA.gov is the U.S. government's official web portal to all federal, state and local government web resources and services.